Time;durP1;ratioP1;P1;durP2;ratioP2;P2;SDS_P1;SDS_P2;PMS_P1;PMS_P2;Temp;Humidity;BMP_temperature;BMP_pressure;BME280_temperature;BME280_humidity;BME280_pressure;Samples;Min_cycle;Max_cycle;Signal;HPM_P1;HPM_P2
2022/10/12 00:00:55;;;;;;;7.90;4.28;;;;;;;-140.72;100.00;52930.66;5052472;28;20426;-69
2022/10/12 00:03:21;;;;;;;6.13;3.40;;;;;;;-140.72;100.00;52922.53;5052519;28;20025;-69
2022/10/12 00:05:58;;;;;;;8.75;3.80;;;;;;;-140.72;100.00;52948.91;5038560;28;20103;-70
2022/10/12 00:08:24;;;;;;;6.00;3.55;;;;;;;-140.72;100.00;52930.66;5052005;28;20035;-70
2022/10/12 00:10:49;;;;;;;5.75;3.20;;;;;;;-140.72;100.00;52969.19;5052345;28;20025;-70
2022/10/12 00:13:18;;;;;;;5.38;3.35;;;;;;;-140.72;100.00;52950.94;5037887;28;20048;-70
2022/10/12 00:15:43;;;;;;;6.82;3.67;;;;;;;-140.72;100.00;52934.69;5034190;28;20105;-69
2022/10/12 00:18:09;;;;;;;5.45;3.72;;;;;;;-140.72;100.00;52967.16;5043609;28;20111;-70
2022/10/12 00:20:34;;;;;;;10.38;4.13;;;;;;;-140.72;100.00;52948.91;5046909;28;20022;-70
2022/10/12 00:23:00;;;;;;;7.82;3.85;;;;;;;-140.72;100.00;52944.84;5046899;28;20017;-69
2022/10/12 00:25:25;;;;;;;9.48;4.10;;;;;;;-140.72;100.00;52950.94;5051037;28;20080;-70
2022/10/12 00:27:51;;;;;;;9.85;3.90;;;;;;;-140.72;100.00;52940.78;5044290;28;20031;-70
2022/10/12 00:30:16;;;;;;;7.03;4.18;;;;;;;-140.72;100.00;52957.03;5034012;28;20025;-70
2022/10/12 00:32:42;;;;;;;4.80;3.58;;;;;;;-140.72;100.00;52963.13;5045514;28;20408;-70
2022/10/12 00:35:07;;;;;;;8.20;4.50;;;;;;;-140.72;100.00;52950.94;5041169;28;20111;-69
2022/10/12 00:37:33;;;;;;;13.45;4.78;;;;;;;-140.72;100.00;52995.59;5051523;28;20125;-70
2022/10/12 00:39:58;;;;;;;6.45;4.00;;;;;;;-140.72;100.00;52908.31;5051173;28;20100;-70
2022/10/12 00:42:24;;;;;;;6.35;4.40;;;;;;;-140.72;100.00;52979.34;5038843;28;20442;-69
2022/10/12 00:44:53;;;;;;;4.35;3.72;;;;;;;-140.72;100.00;52926.59;5045756;28;20029;-69
2022/10/12 00:47:34;;;;;;;13.27;5.22;;;;;;;-140.72;100.00;52971.22;5050916;28;20028;-69
2022/10/12 00:50:00;;;;;;;8.40;4.70;;;;;;;-140.72;100.00;52959.06;5032095;28;20079;-69
2022/10/12 00:52:34;;;;;;;9.88;4.35;;;;;;;-140.72;100.00;52969.19;5045131;28;20025;-69
2022/10/12 00:55:00;;;;;;;7.70;3.88;;;;;;;-140.72;100.00;52995.59;5041537;28;20028;-68
2022/10/12 00:57:26;;;;;;;9.52;4.65;;;;;;;-140.72;100.00;52922.53;5034646;28;20022;-69
2022/10/12 00:59:56;;;;;;;9.40;4.18;;;;;;;-140.72;100.00;52965.16;5041900;28;20354;-69
2022/10/12 01:02:24;;;;;;;7.35;4.63;;;;;;;-140.72;100.00;52930.66;5037538;28;20071;-70
2022/10/12 01:04:51;;;;;;;6.68;3.58;;;;;;;-140.72;100.00;52977.31;5039917;28;20029;-69
2022/10/12 01:07:16;;;;;;;4.68;3.70;;;;;;;-140.72;100.00;52942.81;5048721;28;20453;-69
2022/10/12 01:09:42;;;;;;;8.00;4.30;;;;;;;-140.72;100.00;52973.25;5040467;28;20021;-69
2022/10/12 01:12:08;;;;;;;7.07;5.18;;;;;;;-140.72;100.00;52977.31;5035862;28;20040;-69
2022/10/12 01:14:34;;;;;;;13.50;6.75;;;;;;;-140.72;100.00;52955.00;5042099;28;20457;-69
2022/10/12 01:17:18;;;;;;;8.05;5.85;;;;;;;-140.72;100.00;52977.31;5044280;28;20020;-69
2022/10/12 01:20:10;;;;;;;7.75;5.28;;;;;;;-140.72;100.00;52946.88;5040119;28;20052;-69
2022/10/12 01:22:44;;;;;;;6.70;5.03;;;;;;;-140.72;100.00;52977.31;5039726;28;20057;-69
2022/10/12 01:25:57;;;;;;;8.15;5.57;;;;;;;-140.72;100.00;52946.88;5045282;28;20037;-69
2022/10/12 01:29:01;;;;;;;7.18;5.45;;;;;;;-140.72;100.00;52944.84;5057310;28;20029;-69
2022/10/12 01:31:39;;;;;;;7.40;6.15;;;;;;;-140.72;100.00;52975.28;5044410;28;20362;-69
2022/10/12 01:34:23;;;;;;;9.18;5.82;;;;;;;-140.72;100.00;52916.44;5037696;28;20020;-69
2022/10/12 01:37:00;;;;;;;11.07;5.35;;;;;;;-140.72;100.00;52946.88;5050561;28;20024;-69
2022/10/12 01:39:37;;;;;;;8.70;4.07;;;;;;;-140.72;100.00;52942.81;5048954;28;20032;-69
2022/10/12 01:42:11;;;;;;;7.60;5.28;;;;;;;-140.72;100.00;52963.13;5046957;28;20049;-69
2022/10/12 01:44:36;;;;;;;7.35;5.63;;;;;;;-140.72;100.00;53005.72;5049110;28;20100;-69
2022/10/12 01:47:01;;;;;;;8.38;5.93;;;;;;;-140.72;100.00;52955.00;5041605;28;20103;-69
2022/10/12 01:49:32;;;;;;;7.88;5.20;;;;;;;-140.72;100.00;52975.28;5047386;28;20021;-69
2022/10/12 01:52:16;;;;;;;7.13;5.20;;;;;;;-140.72;100.00;52940.78;5048566;28;20025;-69
2022/10/12 01:54:47;;;;;;;8.90;4.68;;;;;;;-140.72;100.00;52991.53;5050266;28;20112;-69
2022/10/12 01:57:22;;;;;;;6.93;4.68;;;;;;;-140.72;100.00;52971.22;5036361;28;20064;-69
2022/10/12 02:00:07;;;;;;;7.38;4.43;;;;;;;-140.72;100.00;52985.44;5040701;28;20034;-70
2022/10/12 02:03:08;;;;;;;9.60;5.45;;;;;;;-140.72;100.00;52955.00;5049151;28;20060;-69
2022/10/12 02:05:42;;;;;;;8.18;4.35;;;;;;;-140.72;100.00;52963.13;5037935;28;20465;-69
2022/10/12 02:08:17;;;;;;;6.43;4.88;;;;;;;-140.72;100.00;52975.28;5050410;28;20389;-70
2022/10/12 02:11:06;;;;;;;7.40;4.97;;;;;;;-140.72;100.00;52969.19;5040512;28;20430;-69
2022/10/12 02:13:57;;;;;;;9.10;5.22;;;;;;;-140.72;100.00;52957.03;5042802;28;20037;-69
2022/10/12 02:16:32;;;;;;;7.93;5.75;;;;;;;-140.72;100.00;52936.72;5045730;28;20098;-69
2022/10/12 02:18:59;;;;;;;8.82;4.43;;;;;;;-140.72;100.00;52967.16;5049184;28;20033;-70
2022/10/12 02:21:30;;;;;;;7.47;4.90;;;;;;;-140.72;100.00;52967.16;5044018;28;20036;-69
2022/10/12 02:23:59;;;;;;;6.53;5.10;;;;;;;-140.72;100.00;52906.28;5040833;28;20039;-69
2022/10/12 02:26:27;;;;;;;7.75;4.82;;;;;;;-140.72;100.00;52971.22;5037958;28;20385;-69
2022/10/12 02:28:52;;;;;;;6.32;4.30;;;;;;;-140.72;100.00;52936.72;5045717;28;20268;-69
2022/10/12 02:31:49;;;;;;;7.15;4.35;;;;;;;-140.72;100.00;52946.88;5039615;28;20484;-69
2022/10/12 02:34:24;;;;;;;9.93;5.15;;;;;;;-140.72;100.00;52985.44;5038951;28;20045;-69
2022/10/12 02:37:01;;;;;;;7.75;3.92;;;;;;;-140.72;100.00;52934.69;5046357;28;20021;-69
2022/10/12 02:39:42;;;;;;;7.53;4.50;;;;;;;-140.72;100.00;52959.06;5036491;28;20481;-69
2022/10/12 02:42:12;;;;;;;5.00;3.88;;;;;;;-140.72;100.00;52965.16;5046038;28;20341;-69
2022/10/12 02:44:41;;;;;;;6.80;5.07;;;;;;;-140.72;100.00;52967.16;5042381;28;20429;-69
2022/10/12 02:47:09;;;;;;;8.20;4.07;;;;;;;-140.72;100.00;52948.91;5044174;28;20154;-69
2022/10/12 02:49:35;;;;;;;6.35;4.10;;;;;;;-140.72;100.00;52977.31;5035650;28;20027;-69
2022/10/12 02:52:02;;;;;;;5.82;4.32;;;;;;;-140.72;100.00;52989.50;5046686;28;20016;-69
2022/10/12 02:54:29;;;;;;;4.70;3.88;;;;;;;-140.72;100.00;52946.88;5048487;28;20445;-69
2022/10/12 02:56:55;;;;;;;6.07;3.30;;;;;;;-140.72;100.00;52946.88;5043751;28;20017;-69
2022/10/12 02:59:20;;;;;;;5.63;3.80;;;;;;;-140.72;100.00;52979.34;5049051;28;20060;-69
2022/10/12 03:01:46;;;;;;;5.70;4.25;;;;;;;-140.72;100.00;52957.03;5047931;28;20168;-69
2022/10/12 03:04:11;;;;;;;6.90;4.25;;;;;;;-140.72;100.00;52981.38;5037100;28;20477;-69
2022/10/12 03:06:37;;;;;;;4.43;3.63;;;;;;;-140.72;100.00;52952.97;5045171;28;20021;-69
2022/10/12 03:09:04;;;;;;;6.15;4.63;;;;;;;-140.72;100.00;53005.72;5040404;28;20029;-69
2022/10/12 03:11:30;;;;;;;4.78;3.55;;;;;;;-140.72;100.00;52997.63;5030696;28;20096;-69
2022/10/12 03:13:56;;;;;;;8.95;3.10;;;;;;;-140.72;100.00;52942.81;5048144;28;20013;-69
2022/10/12 03:16:23;;;;;;;4.88;3.40;;;;;;;-140.72;100.00;52971.22;5048894;28;20103;-69
2022/10/12 03:18:49;;;;;;;5.10;3.45;;;;;;;-140.72;100.00;52973.25;5035514;28;20024;-69
2022/10/12 03:21:14;;;;;;;7.00;3.58;;;;;;;-140.72;100.00;52995.59;5047995;28;20040;-69
2022/10/12 03:23:40;;;;;;;5.18;3.08;;;;;;;-140.72;100.00;52963.13;5044651;28;20022;-68
2022/10/12 03:26:05;;;;;;;4.32;3.30;;;;;;;-140.72;100.00;52999.66;5039952;28;20041;-69
2022/10/12 03:28:31;;;;;;;4.05;2.78;;;;;;;-140.72;100.00;52965.16;5046082;28;20029;-68
2022/10/12 03:30:58;;;;;;;6.35;3.60;;;;;;;-140.72;100.00;52993.56;5049017;28;20028;-68
2022/10/12 03:33:23;;;;;;;6.63;2.83;;;;;;;-140.72;100.00;52967.16;5042728;28;20021;-68
2022/10/12 03:35:49;;;;;;;3.85;2.97;;;;;;;-140.72;100.00;52967.16;5027078;28;20309;-69
2022/10/12 03:38:15;;;;;;;3.22;2.20;;;;;;;-140.72;100.00;53003.69;5029000;28;20029;-69
2022/10/12 03:40:41;;;;;;;3.58;2.78;;;;;;;-140.72;100.00;52971.22;5040144;28;20465;-68
2022/10/12 03:43:07;;;;;;;6.60;3.17;;;;;;;-140.72;100.00;52948.91;5048225;28;20099;-69
2022/10/12 03:45:32;;;;;;;2.92;2.28;;;;;;;-140.72;100.00;52995.59;5048054;28;20025;-69
2022/10/12 03:47:58;;;;;;;3.40;2.58;;;;;;;-140.72;100.00;52957.03;5044789;28;21424;-69
2022/10/12 03:50:23;;;;;;;7.43;2.58;;;;;;;-140.72;100.00;52975.28;5047934;28;20025;-68
2022/10/12 03:52:48;;;;;;;3.42;2.60;;;;;;;-140.72;100.00;52969.19;5045375;28;20501;-69
2022/10/12 03:55:14;;;;;;;3.67;2.70;;;;;;;-140.72;100.00;52971.22;5035753;28;20236;-68
2022/10/12 03:57:40;;;;;;;4.80;2.60;;;;;;;-140.72;100.00;52989.50;5035944;28;20024;-69
2022/10/12 04:00:06;;;;;;;5.63;2.35;;;;;;;-140.72;100.00;53003.69;5031826;28;20461;-69
2022/10/12 04:02:31;;;;;;;3.78;2.75;;;;;;;-140.72;100.00;52942.81;5034867;28;20369;-69
2022/10/12 04:04:56;;;;;;;5.65;3.05;;;;;;;-140.72;100.00;52946.88;5047643;28;20021;-69
2022/10/12 04:07:22;;;;;;;4.15;2.60;;;;;;;-140.72;100.00;52991.53;5044564;28;20017;-69
2022/10/12 04:09:47;;;;;;;3.28;2.72;;;;;;;-140.72;100.00;52983.41;5044184;28;20087;-68
2022/10/12 04:12:13;;;;;;;2.92;2.25;;;;;;;-140.72;100.00;52965.16;5036877;28;20071;-68
2022/10/12 04:14:38;;;;;;;3.55;2.47;;;;;;;-140.72;100.00;52987.47;5041306;28;20490;-69
2022/10/12 04:17:04;;;;;;;5.60;2.58;;;;;;;-140.72;100.00;52967.16;5045083;28;20033;-68
2022/10/12 04:19:29;;;;;;;4.07;2.10;;;;;;;-140.72;100.00;52979.34;5041786;28;20025;-68
2022/10/12 04:21:55;;;;;;;2.20;1.95;;;;;;;-140.72;100.00;53005.72;5037241;28;20464;-69
2022/10/12 04:24:20;;;;;;;3.47;2.28;;;;;;;-140.72;100.00;52983.41;5042801;28;20037;-69
2022/10/12 04:26:45;;;;;;;3.58;2.33;;;;;;;-140.72;100.00;52993.56;5040704;28;20021;-68
2022/10/12 04:29:12;;;;;;;3.83;2.17;;;;;;;-140.72;100.00;52944.84;5051376;28;20078;-69
2022/10/12 04:31:38;;;;;;;3.60;2.40;;;;;;;-140.72;100.00;53038.19;5052071;28;20067;-69
2022/10/12 04:34:03;;;;;;;5.10;2.30;;;;;;;-140.72;100.00;53017.91;5046780;28;20029;-69
2022/10/12 04:36:28;;;;;;;5.78;2.13;;;;;;;-140.72;100.00;52977.31;5043677;28;20338;-69
2022/10/12 04:38:54;;;;;;;3.88;1.98;;;;;;;-140.72;100.00;52969.19;5036755;28;20030;-69
2022/10/12 04:41:19;;;;;;;2.17;1.98;;;;;;;-140.72;100.00;52940.78;5042922;28;20025;-69
2022/10/12 04:43:47;;;;;;;2.60;1.80;;;;;;;-140.72;100.00;53015.88;5048712;28;20022;-69
2022/10/12 04:46:13;;;;;;;2.17;1.77;;;;;;;-140.72;100.00;53007.75;5048753;28;20035;-68
2022/10/12 04:48:38;;;;;;;5.70;1.90;;;;;;;-140.72;100.00;52971.22;5044866;28;20013;-69
2022/10/12 04:51:04;;;;;;;2.92;2.10;;;;;;;-140.72;100.00;53009.78;5045643;28;20048;-68
2022/10/12 04:53:30;;;;;;;3.00;1.88;;;;;;;-140.72;100.00;52989.50;5043416;28;20029;-69
2022/10/12 04:55:56;;;;;;;2.95;2.53;;;;;;;-140.72;100.00;52999.66;5035730;28;20021;-69
2022/10/12 04:58:21;;;;;;;3.40;2.70;;;;;;;-140.72;100.00;53011.81;5041504;28;20108;-69
2022/10/12 05:00:48;;;;;;;3.58;2.17;;;;;;;-140.72;100.00;52995.59;5040161;28;20027;-70
2022/10/12 05:03:13;;;;;;;2.55;1.95;;;;;;;-140.72;100.00;52991.53;5043769;28;20108;-70
2022/10/12 05:05:39;;;;;;;8.73;2.05;;;;;;;-140.72;100.00;52983.41;5048416;28;20104;-69
2022/10/12 05:08:04;;;;;;;3.22;2.72;;;;;;;-140.72;100.00;52989.50;5051400;28;20028;-69
2022/10/12 05:10:30;;;;;;;2.80;2.25;;;;;;;-140.72;100.00;52987.47;5049930;28;20033;-70
2022/10/12 05:12:55;;;;;;;6.43;2.38;;;;;;;-140.72;100.00;52973.25;5043484;28;20017;-69
2022/10/12 05:15:21;;;;;;;2.67;1.88;;;;;;;-140.72;100.00;52989.50;5045560;28;20017;-70
2022/10/12 05:17:46;;;;;;;4.45;2.65;;;;;;;-140.72;100.00;52983.41;5051151;28;20453;-69
2022/10/12 05:20:12;;;;;;;2.85;2.40;;;;;;;-140.72;100.00;52975.28;5049462;28;20024;-70
2022/10/12 05:22:37;;;;;;;3.03;2.05;;;;;;;-140.72;100.00;53007.75;5042243;28;20083;-69
2022/10/12 05:25:03;;;;;;;2.28;1.85;;;;;;;-140.72;100.00;52983.41;5050548;28;20048;-70
2022/10/12 05:27:29;;;;;;;3.65;2.15;;;;;;;-140.72;100.00;53030.09;5037594;28;20026;-69
2022/10/12 05:29:55;;;;;;;2.85;2.10;;;;;;;-140.72;100.00;52997.63;5050749;28;20029;-69
2022/10/12 05:32:20;;;;;;;5.47;2.63;;;;;;;-140.72;100.00;52965.16;5050811;28;20424;-69
2022/10/12 05:34:46;;;;;;;2.90;1.90;;;;;;;-140.72;100.00;53001.66;5046989;28;20032;-69
2022/10/12 05:37:11;;;;;;;3.20;2.15;;;;;;;-140.72;100.00;53001.66;5041618;28;20430;-68
2022/10/12 05:39:37;;;;;;;2.85;2.03;;;;;;;-140.72;100.00;52983.41;5039634;28;20078;-68
2022/10/12 05:42:03;;;;;;;5.50;2.60;;;;;;;-140.72;100.00;52963.13;5042438;28;20453;-69
2022/10/12 05:44:28;;;;;;;3.85;2.28;;;;;;;-140.72;100.00;53032.13;5048679;28;20025;-69
2022/10/12 05:46:53;;;;;;;5.07;2.22;;;;;;;-140.72;100.00;53003.69;5050307;28;20067;-69
2022/10/12 05:49:22;;;;;;;2.13;1.85;;;;;;;-140.72;100.00;52975.28;5049579;28;20041;-69
2022/10/12 05:51:47;;;;;;;2.33;2.00;;;;;;;-140.72;100.00;53001.66;5046886;28;20021;-69
2022/10/12 05:54:12;;;;;;;3.53;2.20;;;;;;;-140.72;100.00;52993.56;5046259;28;20319;-68
2022/10/12 05:56:38;;;;;;;2.70;2.42;;;;;;;-140.72;100.00;53021.97;5045438;28;20028;-69
2022/10/12 05:59:03;;;;;;;3.70;2.47;;;;;;;-140.72;100.00;53011.81;5050113;28;20029;-68
2022/10/12 06:01:29;;;;;;;4.05;2.80;;;;;;;-140.72;100.00;53007.75;5050369;28;20020;-69
2022/10/12 06:03:54;;;;;;;4.55;2.95;;;;;;;-140.72;100.00;52979.34;5049614;28;20028;-69
2022/10/12 06:06:21;;;;;;;4.32;2.60;;;;;;;-140.72;100.00;52999.66;5044672;28;20411;-69
2022/10/12 06:08:46;;;;;;;2.95;2.25;;;;;;;-140.72;100.00;52997.63;5040909;28;20018;-70
2022/10/12 06:11:12;;;;;;;4.15;3.10;;;;;;;-140.72;100.00;52989.50;5045151;28;20512;-69
2022/10/12 06:13:38;;;;;;;2.97;2.50;;;;;;;-140.72;100.00;52983.41;5045589;28;20029;-69
2022/10/12 06:16:03;;;;;;;3.20;2.30;;;;;;;-140.72;100.00;53028.06;5042180;28;20037;-70
2022/10/12 06:18:29;;;;;;;3.58;2.25;;;;;;;-140.72;100.00;52985.44;5049337;28;20032;-70
2022/10/12 06:20:55;;;;;;;4.03;2.45;;;;;;;-140.72;100.00;53015.88;5049237;28;20020;-70
2022/10/12 06:23:21;;;;;;;4.63;2.38;;;;;;;-140.72;100.00;52987.47;5037395;28;20036;-70
2022/10/12 06:25:48;;;;;;;2.78;2.40;;;;;;;-140.72;100.00;53007.75;5049349;28;20041;-70
2022/10/12 06:28:21;;;;;;;3.20;2.10;;;;;;;-140.72;100.00;52983.41;5050154;28;20076;-70
2022/10/12 06:30:53;;;;;;;3.72;2.78;;;;;;;-140.72;100.00;52971.22;5039093;28;20109;-72
2022/10/12 06:33:19;;;;;;;3.20;2.53;;;;;;;-140.72;100.00;52973.25;5048022;28;20025;-69
2022/10/12 06:35:47;;;;;;;4.28;2.75;;;;;;;-140.72;100.00;53017.91;5046442;28;20018;-69
2022/10/12 06:38:13;;;;;;;4.10;2.72;;;;;;;-140.72;100.00;53017.91;5039525;28;20448;-70
2022/10/12 06:40:38;;;;;;;6.82;3.03;;;;;;;-140.72;100.00;52987.47;5036462;28;20361;-70
2022/10/12 06:43:04;;;;;;;4.88;2.47;;;;;;;-140.72;100.00;52993.56;5050047;28;20041;-70
2022/10/12 06:45:29;;;;;;;3.35;2.47;;;;;;;-140.72;100.00;52997.63;5048865;28;20028;-70
2022/10/12 06:47:55;;;;;;;4.47;3.03;;;;;;;-140.72;100.00;52977.31;5047069;28;20009;-70
2022/10/12 06:50:21;;;;;;;4.63;3.33;;;;;;;-140.72;100.00;52965.16;5039448;28;20364;-70
2022/10/12 06:52:46;;;;;;;4.85;2.90;;;;;;;-140.72;100.00;52957.03;5033361;28;20021;-69
2022/10/12 06:55:12;;;;;;;3.70;2.75;;;;;;;-140.72;100.00;53024.00;5029762;28;20481;-69
2022/10/12 06:57:37;;;;;;;7.55;3.45;;;;;;;-140.72;100.00;52946.88;5043123;28;20067;-70
2022/10/12 07:00:05;;;;;;;4.88;3.38;;;;;;;-140.72;100.00;52938.75;5039600;28;20020;-68
2022/10/12 07:02:30;;;;;;;4.25;3.38;;;;;;;-140.72;100.00;52999.66;5045926;28;20101;-69
2022/10/12 07:04:56;;;;;;;8.30;3.60;;;;;;;-140.72;100.00;52936.72;5040534;28;20124;-68
2022/10/12 07:07:21;;;;;;;5.10;4.50;;;;;;;-140.72;100.00;52971.22;5048746;28;20078;-69
2022/10/12 07:09:47;;;;;;;3.47;2.95;;;;;;;-140.72;100.00;52983.41;5049895;28;20373;-69
2022/10/12 07:12:13;;;;;;;5.72;3.88;;;;;;;-140.72;100.00;52981.38;5049328;28;20036;-69
2022/10/12 07:14:38;;;;;;;6.55;4.43;;;;;;;-140.72;100.00;52971.22;5049262;28;20025;-69
2022/10/12 07:17:04;;;;;;;6.15;4.18;;;;;;;-140.72;100.00;52955.00;5036534;28;20350;-69
2022/10/12 07:19:29;;;;;;;6.00;3.97;;;;;;;-140.72;100.00;52973.25;5049690;28;20021;-70
2022/10/12 07:21:54;;;;;;;7.80;4.18;;;;;;;-140.72;100.00;52971.22;5044105;28;20371;-70
2022/10/12 07:24:20;;;;;;;7.35;4.32;;;;;;;-140.72;100.00;52940.78;5040904;28;20104;-70
2022/10/12 07:26:45;;;;;;;7.82;4.63;;;;;;;-140.72;100.00;52946.88;5036402;28;20183;-70
2022/10/12 07:29:10;;;;;;;11.32;4.72;;;;;;;-140.72;100.00;52946.88;5048783;28;20453;-69
2022/10/12 07:31:36;;;;;;;5.97;4.35;;;;;;;-140.72;100.00;52975.28;5043786;28;20049;-70
2022/10/12 07:34:01;;;;;;;7.10;4.47;;;;;;;-140.72;100.00;52989.50;5041975;28;20021;-70
2022/10/12 07:36:27;;;;;;;5.03;3.42;;;;;;;-140.72;100.00;52971.22;5042715;28;20032;-69
2022/10/12 07:38:52;;;;;;;7.72;3.97;;;;;;;-140.72;100.00;52938.75;5041692;28;20021;-70
2022/10/12 07:41:18;;;;;;;7.13;5.53;;;;;;;-140.72;100.00;52940.78;5042618;28;20458;-70
2022/10/12 07:43:44;;;;;;;4.63;3.70;;;;;;;-140.72;100.00;52950.94;5029599;28;20069;-69
2022/10/12 07:46:09;;;;;;;6.47;5.05;;;;;;;-140.72;100.00;52969.19;5047278;28;20466;-69
2022/10/12 07:48:35;;;;;;;6.50;4.18;;;;;;;-140.72;100.00;52922.53;5049005;28;20020;-70
2022/10/12 07:51:04;;;;;;;5.72;4.78;;;;;;;-140.72;100.00;52975.28;5048795;28;20103;-70
2022/10/12 07:53:32;;;;;;;6.93;4.72;;;;;;;-140.72;100.00;52950.94;5041039;28;20026;-70
2022/10/12 07:56:02;;;;;;;9.18;4.78;;;;;;;-140.72;100.00;52942.81;5028542;28;20032;-70
2022/10/12 07:58:28;;;;;;;;;;;;;;;-140.72;100.00;52995.59;5039537;28;20021;-70
2022/10/12 08:00:53;;;;;;;6.72;5.65;;;;;;;-140.72;100.00;52940.78;5039086;28;20378;-70
2022/10/12 08:03:18;;;;;;;11.30;6.80;;;;;;;-140.72;100.00;52938.75;5052308;28;20463;-70
2022/10/12 08:05:44;;;;;;;8.18;5.93;;;;;;;-140.72;100.00;52946.88;5052615;28;20017;-70
2022/10/12 08:08:09;;;;;;;12.98;8.75;;;;;;;-140.72;100.00;52940.78;5052868;28;20028;-70
2022/10/12 08:10:35;;;;;;;19.10;9.43;;;;;;;-140.72;100.00;52936.72;5039130;28;20020;-70
2022/10/12 08:13:01;;;;;;;18.95;9.95;;;;;;;-140.72;100.00;52922.53;5052904;28;20020;-70
2022/10/12 08:15:26;;;;;;;16.15;9.35;;;;;;;-140.72;100.00;52914.41;5035184;28;20045;-70
2022/10/12 08:17:52;;;;;;;12.45;8.15;;;;;;;-140.72;100.00;52936.72;5042412;28;20488;-70
2022/10/12 08:20:17;;;;;;;15.82;7.40;;;;;;;-140.72;100.00;52896.16;5052776;28;20025;-70
2022/10/12 08:22:42;;;;;;;12.10;8.02;;;;;;;-140.72;100.00;52914.41;5041453;28;20375;-69
2022/10/12 08:25:08;;;;;;;12.98;7.50;;;;;;;-140.72;100.00;52894.13;5045383;28;20143;-69
2022/10/12 08:27:34;;;;;;;12.68;7.10;;;;;;;-140.72;100.00;52892.09;5033042;28;20044;-69
2022/10/12 08:30:00;;;;;;;7.72;6.13;;;;;;;-140.72;100.00;52918.47;5050583;28;20273;-70
2022/10/12 08:32:25;;;;;;;14.48;6.45;;;;;;;-140.72;100.00;52863.66;5051565;28;20368;-70
2022/10/12 08:34:50;;;;;;;8.70;5.97;;;;;;;-140.72;100.00;52904.25;5046674;28;20100;-70
2022/10/12 08:37:16;;;;;;;8.63;5.90;;;;;;;-140.72;100.00;52902.22;5032877;28;20021;-70
2022/10/12 08:39:41;;;;;;;10.75;6.13;;;;;;;-140.72;100.00;52898.16;5045458;28;20029;-69
2022/10/12 08:42:57;;;;;;;6.35;4.70;;;;;;;-140.72;100.00;52865.69;5044774;28;20025;-70
2022/10/12 08:45:23;;;;;;;8.73;5.22;;;;;;;-140.72;100.00;52853.53;5040695;28;20115;-70
2022/10/12 08:48:05;;;;;;;8.82;6.00;;;;;;;-140.72;100.00;52875.84;5045579;28;20025;-70
2022/10/12 08:50:34;;;;;;;7.13;5.75;;;;;;;-140.72;100.00;52877.88;5049594;28;20032;-70
2022/10/12 08:53:22;;;;;;;7.07;5.65;;;;;;;-140.72;100.00;52888.03;5048512;28;20023;-71
2022/10/12 08:55:47;;;;;;;10.15;5.28;;;;;;;-140.72;100.00;52873.81;5050270;28;20539;-70
2022/10/12 08:58:19;;;;;;;12.60;5.53;;;;;;;-140.72;100.00;52859.63;5048552;28;20059;-69
2022/10/12 09:00:49;;;;;;;6.53;4.95;;;;;;;-140.72;100.00;52859.63;5048995;28;20033;-70
2022/10/12 09:03:44;;;;;;;8.13;5.38;;;;;;;-140.72;100.00;52851.50;5046639;28;20461;-70
2022/10/12 09:06:23;;;;;;;12.23;5.30;;;;;;;-140.72;100.00;52881.94;5041678;28;20288;-69
2022/10/12 09:09:00;;;;;;;5.45;4.30;;;;;;;-140.72;100.00;52843.38;5042490;28;20478;-70
2022/10/12 09:11:59;;;;;;;10.13;5.68;;;;;;;-140.72;100.00;52845.41;5050854;28;20028;-70
2022/10/12 09:14:30;;;;;;;6.10;4.90;;;;;;;-140.72;100.00;52896.16;5040423;28;20017;-69
2022/10/12 09:16:58;;;;;;;6.85;4.60;;;;;;;-140.72;100.00;52873.81;5047441;28;20025;-69
2022/10/12 09:19:31;;;;;;;9.10;5.20;;;;;;;-140.72;100.00;52849.47;5047735;28;20066;-69
2022/10/12 09:21:57;;;;;;;8.48;5.43;;;;;;;-140.72;100.00;52827.16;5050006;28;20100;-69
2022/10/12 09:24:33;;;;;;;8.52;4.82;;;;;;;-140.72;100.00;52859.63;5041499;28;20112;-69
2022/10/12 09:27:06;;;;;;;12.32;6.65;;;;;;;-140.72;100.00;52843.38;5049870;28;20024;-69
2022/10/12 09:29:35;;;;;;;7.47;5.78;;;;;;;-140.72;100.00;52857.59;5046206;28;20025;-69
2022/10/12 09:32:28;;;;;;;7.97;4.90;;;;;;;-140.72;100.00;52849.47;5045655;28;20033;-69
2022/10/12 09:34:54;;;;;;;8.20;5.70;;;;;;;-140.72;100.00;52821.06;5049047;28;20146;-69
2022/10/12 09:37:25;;;;;;;6.97;4.88;;;;;;;-140.72;100.00;52802.78;5038299;28;20404;-69
2022/10/12 09:39:51;;;;;;;11.25;5.22;;;;;;;-140.72;100.00;52837.28;5047540;28;20033;-69
2022/10/12 09:42:16;;;;;;;11.75;6.18;;;;;;;-140.72;100.00;52819.03;5046793;28;20461;-69
2022/10/12 09:44:54;;;;;;;8.18;6.05;;;;;;;-140.72;100.00;52829.19;5046201;28;20170;-69
2022/10/12 09:47:32;;;;;;;10.57;5.13;;;;;;;-140.72;100.00;52825.13;5045135;28;20037;-69
2022/10/12 09:49:59;;;;;;;7.35;5.47;;;;;;;-140.72;100.00;52833.22;5047337;28;20028;-69
2022/10/12 09:52:34;;;;;;;7.65;5.47;;;;;;;-140.72;100.00;52825.13;5044024;28;20372;-69
2022/10/12 09:55:03;;;;;;;12.25;4.85;;;;;;;-140.72;100.00;52806.84;5042180;28;20029;-69
2022/10/12 09:57:34;;;;;;;8.88;4.93;;;;;;;-140.72;100.00;52819.03;5037120;28;20025;-70
2022/10/12 10:00:04;;;;;;;9.02;4.90;;;;;;;-140.72;100.00;52780.47;5050607;28;20083;-69
2022/10/12 10:02:30;;;;;;;9.85;5.85;;;;;;;-140.72;100.00;52823.09;5036003;28;20457;-70
2022/10/12 10:05:21;;;;;;;8.95;5.45;;;;;;;-140.72;100.00;52808.88;5047354;28;20077;-69
2022/10/12 10:07:46;;;;;;;9.65;5.13;;;;;;;-140.72;100.00;52790.63;5048700;28;20368;-69
2022/10/12 10:10:16;;;;;;;8.57;5.47;;;;;;;-140.72;100.00;52804.81;5049303;28;20283;-70
2022/10/12 10:12:55;;;;;;;9.73;5.13;;;;;;;-140.72;100.00;52786.56;5031632;28;20021;-69
2022/10/12 10:15:25;;;;;;;10.02;5.38;;;;;;;-140.72;100.00;52782.50;5033564;28;20351;-69
2022/10/12 10:17:54;;;;;;;7.72;5.80;;;;;;;-140.72;100.00;52800.75;5049687;28;20056;-69
2022/10/12 10:20:45;;;;;;;10.35;5.28;;;;;;;-140.72;100.00;52796.72;5049883;28;20043;-69
2022/10/12 10:23:27;;;;;;;12.52;6.30;;;;;;;-140.72;100.00;52814.97;5031108;28;20474;-69
2022/10/12 10:25:57;;;;;;;8.93;6.10;;;;;;;-140.72;100.00;52796.72;5049993;28;20389;-70
2022/10/12 10:28:27;;;;;;;;;;;;;;;-140.72;100.00;52784.53;5046661;28;20044;-70
2022/10/12 10:31:21;;;;;;;9.38;5.70;;;;;;;-140.72;100.00;52748.00;5040525;28;19913;-69
2022/10/12 10:34:17;;;;;;;12.25;6.82;;;;;;;-140.72;100.00;52717.56;5037913;28;20040;-70
2022/10/12 10:36:50;;;;;;;9.23;5.32;;;;;;;-140.72;100.00;52739.88;5049746;28;20369;-70
2022/10/12 10:39:27;;;;;;;9.18;6.05;;;;;;;-140.72;100.00;52727.72;5049390;28;20041;-69
2022/10/12 10:41:57;;;;;;;10.23;6.72;;;;;;;-140.72;100.00;52681.03;5049947;28;20477;-69
2022/10/12 10:44:31;;;;;;;7.60;5.20;;;;;;;-140.72;100.00;52723.66;5045069;28;20021;-69
2022/10/12 10:47:07;;;;;;;7.80;5.22;;;;;;;-140.72;100.00;52662.78;5040398;28;20029;-69
2022/10/12 10:49:44;;;;;;;11.00;5.28;;;;;;;-140.72;100.00;52636.38;5035080;28;20029;-70
2022/10/12 10:52:26;;;;;;;6.07;4.60;;;;;;;-140.72;100.00;52626.25;5029171;28;20531;-70
2022/10/12 10:55:18;;;;;;;8.23;5.20;;;;;;;-140.72;48.62;52610.00;5036237;28;20465;-70
2022/10/12 10:57:58;;;;;;;6.40;4.20;;;;;;;-140.72;30.71;52640.44;5045574;28;20362;-70
2022/10/12 11:00:23;;;;;;;13.80;4.50;;;;;;;-140.72;27.78;52652.63;5044799;28;20533;-70
2022/10/12 11:02:55;;;;;;;5.15;4.05;;;;;;;-140.72;20.30;52632.34;5046313;28;20095;-69
2022/10/12 11:05:45;;;;;;;8.50;4.60;;;;;;;-140.72;19.63;52610.00;5035785;28;20052;-70
2022/10/12 11:08:15;;;;;;;6.82;4.05;;;;;;;-140.72;7.27;52577.53;5044674;28;20021;-70
2022/10/12 11:10:47;;;;;;;9.43;3.85;;;;;;;-140.72;0.00;52593.78;5041388;28;20087;-70
2022/10/12 11:13:22;;;;;;;5.50;3.90;;;;;;;-140.72;0.00;52559.28;5044803;28;20033;-70
2022/10/12 11:16:14;;;;;;;8.40;4.57;;;;;;;-140.72;0.00;52541.03;5045333;28;20037;-70
2022/10/12 11:18:51;;;;;;;6.40;4.00;;;;;;;-140.72;0.00;52569.44;5034028;28;20440;-69
2022/10/12 11:21:19;;;;;;;7.80;4.32;;;;;;;-140.72;0.00;52610.00;4966283;28;20041;-68